Time;durP1;ratioP1;P1;durP2;ratioP2;P2;SDS_P1;SDS_P2;PMS_P1;PMS_P2;Temp;Humidity;BMP_temperature;BMP_pressure;BME280_temperature;BME280_humidity;BME280_pressure;Samples;Min_cycle;Max_cycle;Signal;HPM_P1;HPM_P2
2021/08/12 00:01:53;;;;;;;1.50;1.40;;;25.40;71.30;;;;;;5013562;28;20025;-80
2021/08/12 00:04:19;;;;;;;1.42;1.38;;;25.50;71.10;;;;;;5030803;28;20500;-83
2021/08/12 00:06:46;;;;;;;1.45;1.35;;;25.60;71.40;;;;;;5030696;28;20487;-82
2021/08/12 00:09:12;;;;;;;0.60;0.60;;;25.60;71.90;;;;;;5014127;28;20017;-79
2021/08/12 00:11:39;;;;;;;0.70;0.70;;;25.50;72.10;;;;;;5013447;28;20071;-80
2021/08/12 00:14:06;;;;;;;1.05;0.95;;;25.50;72.60;;;;;;5030828;28;20397;-82
2021/08/12 00:16:35;;;;;;;0.60;0.60;;;25.50;72.70;;;;;;5031558;28;20029;-81
2021/08/12 00:19:01;;;;;;;0.90;0.90;;;25.50;73.10;;;;;;5030901;28;20040;-82
2021/08/12 00:21:27;;;;;;;1.35;1.13;;;24.60;75.30;;;;;;5030624;28;20037;-79
2021/08/12 00:23:58;;;;;;;0.68;0.68;;;24.50;76.40;;;;;;5031531;28;20049;-79
2021/08/12 00:26:24;;;;;;;0.70;0.70;;;25.00;75.50;;;;;;5031475;28;20350;-78
2021/08/12 00:28:50;;;;;;;0.60;0.60;;;25.10;75.10;;;;;;5031034;28;20493;-79
2021/08/12 00:31:15;;;;;;;1.85;1.05;;;25.10;74.60;;;;;;5013670;28;20104;-78
2021/08/12 00:33:41;;;;;;;0.70;0.70;;;25.10;74.60;;;;;;5031244;28;20030;-82
2021/08/12 00:36:07;;;;;;;0.60;0.60;;;25.30;74.50;;;;;;5031278;28;20057;-83
2021/08/12 00:38:32;;;;;;;1.05;0.95;;;25.30;74.50;;;;;;5012927;28;20809;-79
2021/08/12 00:40:58;;;;;;;0.70;0.70;;;25.20;74.50;;;;;;5012145;28;20440;-83
2021/08/12 00:43:24;;;;;;;1.30;1.23;;;25.20;75.00;;;;;;5030007;28;20400;-79
2021/08/12 00:45:50;;;;;;;0.88;0.88;;;25.20;75.20;;;;;;5012004;28;20068;-83
2021/08/12 00:48:15;;;;;;;0.75;0.75;;;25.20;75.80;;;;;;5030513;28;20017;-78
2021/08/12 00:50:43;;;;;;;0.90;0.90;;;25.20;75.50;;;;;;5030005;28;20033;-79
2021/08/12 00:53:09;;;;;;;1.05;1.00;;;25.10;75.20;;;;;;5029892;28;20049;-83
2021/08/12 00:55:37;;;;;;;1.88;1.45;;;25.00;76.50;;;;;;5031094;28;20083;-82
2021/08/12 00:58:03;;;;;;;0.82;0.82;;;25.00;76.30;;;;;;5031535;28;20428;-82
2021/08/12 01:00:31;;;;;;;1.20;1.02;;;25.00;76.00;;;;;;5031029;28;20052;-81
2021/08/12 01:02:57;;;;;;;2.88;1.40;;;24.80;77.00;;;;;;5031508;28;20457;-82
2021/08/12 01:05:23;;;;;;;1.05;1.05;;;24.90;77.80;;;;;;5030763;28;20071;-80
2021/08/12 01:08:18;;;;;;;0.93;0.77;;;24.80;76.90;;;;;;5031225;28;20388;-77
2021/08/12 01:10:51;;;;;;;0.90;0.90;;;24.90;76.70;;;;;;5030155;28;20053;-79
2021/08/12 01:13:19;;;;;;;0.88;0.88;;;24.70;76.80;;;;;;5031016;28;20033;-82
2021/08/12 01:15:51;;;;;;;0.70;0.70;;;24.70;77.70;;;;;;5030913;28;20107;-82
2021/08/12 01:18:34;;;;;;;2.33;1.23;;;24.50;78.60;;;;;;5031315;28;20034;-82
2021/08/12 01:21:14;;;;;;;0.60;0.60;;;24.60;78.20;;;;;;5032571;28;20037;-82
2021/08/12 01:23:40;;;;;;;1.02;1.00;;;24.60;77.80;;;;;;5035010;28;20053;-81
2021/08/12 01:26:08;;;;;;;0.68;0.68;;;24.80;77.60;;;;;;5034489;28;20081;-79
2021/08/12 01:28:43;;;;;;;0.70;0.70;;;24.80;77.50;;;;;;5034711;28;20128;-80
2021/08/12 01:31:18;;;;;;;0.70;0.70;;;24.70;77.40;;;;;;5034812;28;20021;-83
2021/08/12 01:34:12;;;;;;;0.77;0.77;;;24.80;77.30;;;;;;5034454;28;20042;-79
2021/08/12 01:36:41;;;;;;;1.60;0.90;;;24.90;77.70;;;;;;5034720;28;20025;-80
2021/08/12 01:39:11;;;;;;;1.38;1.27;;;24.70;77.30;;;;;;5034486;28;20033;-81
2021/08/12 01:41:37;;;;;;;0.60;0.60;;;24.60;77.70;;;;;;5016870;28;20108;-80
2021/08/12 01:44:04;;;;;;;0.80;0.80;;;24.40;78.00;;;;;;5016632;28;20083;-82
2021/08/12 01:46:31;;;;;;;1.50;1.38;;;24.50;78.00;;;;;;5016472;28;20025;-79
2021/08/12 01:48:58;;;;;;;0.98;0.98;;;24.50;77.90;;;;;;5034190;28;20041;-81
2021/08/12 01:51:26;;;;;;;0.70;0.70;;;24.50;78.30;;;;;;5034484;28;20049;-81
2021/08/12 01:53:54;;;;;;;0.70;0.70;;;24.40;78.10;;;;;;5016304;28;20025;-79
2021/08/12 01:56:20;;;;;;;0.80;0.80;;;24.30;78.10;;;;;;5034065;28;20346;-80
2021/08/12 01:58:47;;;;;;;0.80;0.80;;;24.20;78.70;;;;;;5016572;28;20492;-79
2021/08/12 02:01:13;;;;;;;4.50;1.95;;;24.20;78.80;;;;;;5034242;28;20465;-82
2021/08/12 02:03:41;;;;;;;0.80;0.80;;;24.30;78.80;;;;;;5016294;28;20037;-82
2021/08/12 02:06:09;;;;;;;0.70;0.70;;;24.30;78.60;;;;;;5033773;28;20467;-81
2021/08/12 02:08:35;;;;;;;0.70;0.70;;;24.20;78.70;;;;;;5034250;28;20118;-81
2021/08/12 02:11:00;;;;;;;0.80;0.80;;;24.10;79.40;;;;;;5033928;28;20401;-79
2021/08/12 02:13:28;;;;;;;0.93;0.90;;;24.10;80.00;;;;;;5034228;28;20037;-82
2021/08/12 02:15:54;;;;;;;0.77;0.77;;;24.10;79.80;;;;;;5033896;28;20049;-80
2021/08/12 02:18:20;;;;;;;2.95;2.45;;;24.10;79.80;;;;;;5033849;28;20037;-80
2021/08/12 02:21:03;;;;;;;1.08;0.98;;;24.10;79.70;;;;;;5033562;28;20049;-78
2021/08/12 02:23:38;;;;;;;1.00;0.95;;;24.20;79.80;;;;;;5033938;28;20026;-82
2021/08/12 02:26:16;;;;;;;2.28;2.03;;;24.10;80.30;;;;;;5033510;28;20025;-78
2021/08/12 02:28:43;;;;;;;1.10;1.02;;;24.10;80.60;;;;;;5033412;28;20026;-81
2021/08/12 02:31:11;;;;;;;1.08;1.08;;;23.90;80.90;;;;;;5033550;28;20029;-81
2021/08/12 02:33:38;;;;;;;0.70;0.70;;;23.90;81.40;;;;;;5033650;28;20057;-83
2021/08/12 02:36:05;;;;;;;0.90;0.90;;;24.00;81.40;;;;;;5033332;28;20033;-80
2021/08/12 02:38:33;;;;;;;0.85;0.85;;;24.00;81.50;;;;;;5033445;28;20060;-81
2021/08/12 02:40:59;;;;;;;1.05;1.02;;;24.00;81.70;;;;;;5033371;28;20419;-81
2021/08/12 02:43:27;;;;;;;0.70;0.70;;;24.00;81.40;;;;;;5033386;28;20120;-80
2021/08/12 02:45:55;;;;;;;1.48;1.38;;;23.90;81.50;;;;;;5033251;28;20768;-81
2021/08/12 02:48:24;;;;;;;0.90;0.90;;;23.90;81.50;;;;;;5033611;28;20112;-81
2021/08/12 02:50:51;;;;;;;0.70;0.70;;;23.90;81.80;;;;;;5033130;28;20033;-82
2021/08/12 02:53:19;;;;;;;2.13;1.83;;;23.90;81.70;;;;;;5033463;28;20436;-82
2021/08/12 02:55:45;;;;;;;0.80;0.80;;;23.70;82.50;;;;;;5015287;28;20842;-84
2021/08/12 02:58:12;;;;;;;0.80;0.80;;;23.90;81.80;;;;;;5033190;28;20075;-83
2021/08/12 03:00:38;;;;;;;0.90;0.90;;;24.00;81.80;;;;;;5032893;28;20040;-80
2021/08/12 03:03:05;;;;;;;0.98;0.98;;;24.00;81.50;;;;;;5033494;28;20045;-82
2021/08/12 03:05:35;;;;;;;0.70;0.70;;;24.00;81.60;;;;;;5032441;28;20080;-83
2021/08/12 03:08:02;;;;;;;0.77;0.77;;;24.10;81.20;;;;;;5033004;28;20022;-81
2021/08/12 03:10:29;;;;;;;0.70;0.70;;;24.10;80.90;;;;;;5032160;28;20099;-80
2021/08/12 03:12:58;;;;;;;0.98;0.98;;;24.20;81.10;;;;;;5031773;28;20060;-82
2021/08/12 03:15:25;;;;;;;1.05;1.00;;;24.00;80.70;;;;;;5014386;28;20120;-82
2021/08/12 03:17:53;;;;;;;0.70;0.70;;;23.60;81.80;;;;;;5014388;28;20354;-82
2021/08/12 03:20:18;;;;;;;1.63;1.25;;;23.50;82.40;;;;;;5013681;28;20030;-82
2021/08/12 03:22:47;;;;;;;1.13;1.13;;;23.50;82.50;;;;;;5024607;28;20064;-82
2021/08/12 03:25:13;;;;;;;0.70;0.70;;;23.40;82.80;;;;;;5025850;28;20025;-81
2021/08/12 03:27:39;;;;;;;1.95;1.30;;;23.40;82.90;;;;;;5013804;28;20033;-81
2021/08/12 03:30:05;;;;;;;0.80;0.80;;;23.40;83.20;;;;;;5031689;28;20037;-81
2021/08/12 03:32:31;;;;;;;0.80;0.80;;;23.30;83.40;;;;;;5031718;28;20064;-81
2021/08/12 03:34:57;;;;;;;0.80;0.80;;;23.40;83.40;;;;;;5031552;28;20057;-79
2021/08/12 03:37:22;;;;;;;1.30;1.15;;;23.20;83.50;;;;;;5031216;28;20021;-80
2021/08/12 03:39:48;;;;;;;2.72;1.35;;;23.10;84.40;;;;;;5031386;28;20658;-81
2021/08/12 03:42:14;;;;;;;1.33;1.23;;;23.10;84.30;;;;;;5031261;28;20069;-82
2021/08/12 03:44:39;;;;;;;2.85;1.95;;;23.20;84.20;;;;;;5030701;28;20033;-81
2021/08/12 03:47:06;;;;;;;1.05;1.02;;;23.00;84.70;;;;;;5031673;28;20029;-80
2021/08/12 03:49:33;;;;;;;0.95;0.95;;;23.10;85.10;;;;;;5013703;28;20477;-83
2021/08/12 03:51:59;;;;;;;0.90;0.90;;;23.20;84.40;;;;;;5013146;28;20037;-83
2021/08/12 03:54:24;;;;;;;0.80;0.80;;;23.00;85.00;;;;;;5031492;28;20416;-81
2021/08/12 03:56:50;;;;;;;1.05;1.05;;;23.10;85.00;;;;;;5012567;28;20026;-80
2021/08/12 03:59:16;;;;;;;10.23;2.75;;;23.00;84.90;;;;;;4996726;28;20061;-81
2021/08/12 04:01:42;;;;;;;1.27;1.23;;;23.00;85.00;;;;;;5031039;28;20068;-80
2021/08/12 04:04:07;;;;;;;1.23;1.13;;;23.10;85.00;;;;;;5031346;28;20408;-80
2021/08/12 04:06:33;;;;;;;0.95;0.95;;;22.90;85.40;;;;;;5031323;28;20585;-80
2021/08/12 04:08:59;;;;;;;0.80;0.80;;;22.80;86.10;;;;;;4989567;28;1194507;-79
2021/08/12 04:11:25;;;;;;;1.25;1.15;;;22.70;86.80;;;;;;5032106;28;20083;-80
2021/08/12 04:13:50;;;;;;;0.88;0.88;;;22.80;87.00;;;;;;5031597;28;20059;-80
2021/08/12 04:16:16;;;;;;;1.10;1.05;;;22.80;86.80;;;;;;5031563;28;20025;-78
2021/08/12 04:18:42;;;;;;;1.02;1.02;;;22.80;87.00;;;;;;5014005;28;20103;-81
2021/08/12 04:21:08;;;;;;;1.67;1.58;;;23.00;87.50;;;;;;5014172;28;20060;-79
2021/08/12 04:23:33;;;;;;;0.80;0.80;;;22.90;86.20;;;;;;5014537;28;20021;-81
2021/08/12 04:25:59;;;;;;;0.90;0.90;;;22.90;86.30;;;;;;5031929;28;20017;-80
2021/08/12 04:28:25;;;;;;;1.33;1.23;;;22.90;86.90;;;;;;5031462;28;20034;-81
2021/08/12 04:30:51;;;;;;;1.65;1.55;;;22.80;88.20;;;;;;5031666;28;20025;-81
2021/08/12 04:33:17;;;;;;;0.80;0.80;;;23.00;87.40;;;;;;5031866;28;20029;-80
2021/08/12 04:35:44;;;;;;;1.55;1.45;;;23.20;86.90;;;;;;5014071;28;20095;-80
2021/08/12 04:38:10;;;;;;;0.90;0.90;;;23.30;87.00;;;;;;5031441;28;20087;-79
2021/08/12 04:40:36;;;;;;;1.27;1.17;;;23.30;86.20;;;;;;5031261;28;20037;-81
2021/08/12 04:43:02;;;;;;;0.98;0.98;;;23.30;85.70;;;;;;5031351;28;20025;-81
2021/08/12 04:45:28;;;;;;;0.85;0.85;;;23.50;86.00;;;;;;5031488;28;20030;-83
2021/08/12 04:48:02;;;;;;;1.05;1.05;;;23.40;85.70;;;;;;5031443;28;20030;-81
2021/08/12 04:50:28;;;;;;;1.33;1.23;;;23.40;85.60;;;;;;5031262;28;20410;-80
2021/08/12 04:52:54;;;;;;;1.30;1.20;;;23.30;86.50;;;;;;5031400;28;20381;-80
2021/08/12 04:55:20;;;;;;;2.85;1.70;;;23.50;85.80;;;;;;5031835;28;20519;-82
2021/08/12 04:57:46;;;;;;;3.28;2.55;;;23.60;85.60;;;;;;5035156;28;20425;-81
2021/08/12 05:00:12;;;;;;;1.70;1.55;;;23.60;84.90;;;;;;5035104;28;20500;-80
2021/08/12 05:02:38;;;;;;;2.25;2.05;;;23.60;85.70;;;;;;5035334;28;20373;-80
2021/08/12 05:05:04;;;;;;;2.72;2.05;;;23.70;85.70;;;;;;5035279;28;20485;-82
2021/08/12 05:07:30;;;;;;;2.08;1.98;;;23.70;85.60;;;;;;5035302;28;20018;-82
2021/08/12 05:09:55;;;;;;;1.17;1.10;;;23.50;85.50;;;;;;5034531;28;20116;-81
2021/08/12 05:12:22;;;;;;;1.05;0.98;;;23.40;86.30;;;;;;5034625;28;20032;-82
2021/08/12 05:14:48;;;;;;;1.85;1.60;;;23.40;86.40;;;;;;5035181;28;20029;-82
2021/08/12 05:17:14;;;;;;;0.95;0.95;;;23.40;86.10;;;;;;5035162;28;20531;-82
2021/08/12 05:19:40;;;;;;;2.90;2.58;;;23.60;85.90;;;;;;5034895;28;20041;-79
2021/08/12 05:22:06;;;;;;;2.20;2.00;;;23.80;85.40;;;;;;5017040;28;20022;-80
2021/08/12 05:24:32;;;;;;;1.88;1.67;;;23.90;85.00;;;;;;5034958;28;20030;-78
2021/08/12 05:26:58;;;;;;;3.70;2.50;;;24.20;84.00;;;;;;5017135;28;20025;-80
2021/08/12 05:29:24;;;;;;;12.98;7.25;;;24.40;83.60;;;;;;5034197;28;20025;-81
2021/08/12 05:31:51;;;;;;;2.15;1.95;;;24.40;83.20;;;;;;5034326;28;20021;-82
2021/08/12 05:34:17;;;;;;;1.45;1.35;;;24.40;83.50;;;;;;5034382;28;20432;-79
2021/08/12 05:36:42;;;;;;;1.23;1.13;;;24.40;84.20;;;;;;5034536;28;20524;-81
2021/08/12 05:39:08;;;;;;;0.90;0.90;;;24.50;83.30;;;;;;5016110;28;20033;-80
2021/08/12 05:41:34;;;;;;;1.38;1.27;;;24.50;83.60;;;;;;5015942;28;20022;-80
2021/08/12 05:43:59;;;;;;;2.50;2.30;;;24.60;83.60;;;;;;5034176;28;20462;-82
2021/08/12 05:46:25;;;;;;;1.90;1.73;;;24.60;83.90;;;;;;5034382;28;20025;-80
2021/08/12 05:48:51;;;;;;;2.70;2.03;;;24.70;83.60;;;;;;5033668;28;20083;-80
2021/08/12 05:51:17;;;;;;;1.30;1.20;;;24.80;82.70;;;;;;5016484;28;20116;-79
2021/08/12 05:53:42;;;;;;;1.30;1.15;;;24.90;82.20;;;;;;5034009;28;20051;-80
2021/08/12 05:56:08;;;;;;;0.90;0.90;;;24.90;82.10;;;;;;5016594;28;20028;-80
2021/08/12 05:58:38;;;;;;;2.13;1.17;;;24.90;82.70;;;;;;5033949;28;20425;-79
2021/08/12 06:01:04;;;;;;;0.90;0.90;;;25.00;82.40;;;;;;5016469;28;20059;-80
2021/08/12 06:03:30;;;;;;;1.45;1.35;;;25.20;81.50;;;;;;5033579;28;20088;-78
2021/08/12 06:05:56;;;;;;;0.80;0.80;;;25.20;80.30;;;;;;5016089;28;20053;-79
2021/08/12 06:08:22;;;;;;;0.70;0.70;;;25.30;80.00;;;;;;5033947;28;20029;-80
2021/08/12 06:10:48;;;;;;;2.53;1.77;;;25.20;79.70;;;;;;5033426;28;20390;-79
2021/08/12 06:13:14;;;;;;;2.47;2.28;;;25.10;80.20;;;;;;5034087;28;20829;-80
2021/08/12 06:15:40;;;;;;;0.80;0.80;;;25.30;80.30;;;;;;5034015;28;20033;-80
2021/08/12 06:18:07;;;;;;;1.35;1.20;;;25.30;79.60;;;;;;5033694;28;20044;-81
2021/08/12 06:20:33;;;;;;;0.75;0.75;;;25.50;80.20;;;;;;5033839;28;20032;-79
2021/08/12 06:23:00;;;;;;;0.80;0.80;;;25.60;79.80;;;;;;5033787;28;20033;-81
2021/08/12 06:25:26;;;;;;;0.80;0.80;;;25.70;80.00;;;;;;5015847;28;20108;-79
2021/08/12 06:27:52;;;;;;;0.60;0.60;;;25.80;79.00;;;;;;5033687;28;20029;-81
2021/08/12 06:30:18;;;;;;;0.90;0.90;;;25.90;78.80;;;;;;5033454;28;20090;-80
2021/08/12 06:32:44;;;;;;;2.97;1.73;;;26.00;79.70;;;;;;5033491;28;20531;-81
2021/08/12 06:35:12;;;;;;;0.63;0.63;;;26.10;78.90;;;;;;5033328;28;20570;-80
2021/08/12 06:37:49;;;;;;;2.20;1.23;;;26.20;78.90;;;;;;5033434;28;20418;-80
2021/08/12 06:40:16;;;;;;;1.25;1.15;;;26.20;77.70;;;;;;5033230;28;20134;-79
2021/08/12 06:42:43;;;;;;;0.85;0.85;;;26.30;78.00;;;;;;5033544;28;20049;-80
2021/08/12 06:45:09;;;;;;;1.20;1.05;;;26.50;77.60;;;;;;5033312;28;20025;-81
2021/08/12 06:47:38;;;;;;;1.30;1.20;;;26.60;77.80;;;;;;5033330;28;20029;-82
2021/08/12 06:50:05;;;;;;;0.97;0.97;;;26.60;76.50;;;;;;5033283;28;20120;-81
2021/08/12 06:52:31;;;;;;;0.50;0.50;;;26.70;75.50;;;;;;5033233;28;20026;-81
2021/08/12 06:54:57;;;;;;;0.60;0.60;;;26.80;74.80;;;;;;5033226;28;20082;-80
2021/08/12 06:57:23;;;;;;;0.82;0.80;;;26.90;75.60;;;;;;5015283;28;20469;-81
2021/08/12 06:59:49;;;;;;;0.50;0.50;;;26.90;72.50;;;;;;5033185;28;20113;-81
2021/08/12 07:02:15;;;;;;;1.08;1.00;;;27.00;70.50;;;;;;5015040;28;20534;-81
2021/08/12 07:04:40;;;;;;;0.50;0.50;;;27.10;67.60;;;;;;5014888;28;20409;-79
2021/08/12 07:07:06;;;;;;;1.50;1.40;;;27.00;64.40;;;;;;5032646;28;20033;-80
2021/08/12 07:09:32;;;;;;;0.85;0.80;;;27.10;65.30;;;;;;5032752;28;20084;-81
2021/08/12 07:11:58;;;;;;;0.40;0.40;;;27.10;64.60;;;;;;5032308;28;20074;-79
2021/08/12 07:14:24;;;;;;;1.27;0.98;;;27.10;63.70;;;;;;5032864;28;20022;-78
2021/08/12 07:16:50;;;;;;;0.70;0.70;;;27.20;62.30;;;;;;5032501;28;20068;-81
2021/08/12 07:19:15;;;;;;;1.08;0.98;;;27.30;63.00;;;;;;5031642;28;20083;-79
2021/08/12 07:21:44;;;;;;;2.40;0.88;;;27.50;63.10;;;;;;5032536;28;20056;-78
2021/08/12 07:24:10;;;;;;;0.80;0.80;;;27.50;62.80;;;;;;5032349;28;20076;-82
2021/08/12 07:26:37;;;;;;;11.80;1.67;;;27.50;62.30;;;;;;5014633;28;20045;-81
2021/08/12 07:29:03;;;;;;;1.50;1.40;;;27.60;62.50;;;;;;5014783;28;20082;-80
2021/08/12 07:31:29;;;;;;;0.70;0.70;;;27.80;63.00;;;;;;5014273;28;20025;-80
2021/08/12 07:33:55;;;;;;;0.95;0.80;;;28.10;63.20;;;;;;5014665;28;20037;-79
2021/08/12 07:36:21;;;;;;;1.42;1.27;;;27.90;62.00;;;;;;5032032;28;20363;-79
2021/08/12 07:38:46;;;;;;;0.40;0.40;;;27.90;61.60;;;;;;5013657;28;20037;-80
2021/08/12 07:41:12;;;;;;;1.60;0.85;;;28.00;62.10;;;;;;5031818;28;20052;-78
2021/08/12 07:43:40;;;;;;;0.40;0.40;;;28.20;61.90;;;;;;5031475;28;20025;-78
2021/08/12 07:46:05;;;;;;;2.05;1.80;;;28.30;62.10;;;;;;5031600;28;20151;-78
2021/08/12 07:48:31;;;;;;;0.88;0.80;;;28.40;61.40;;;;;;5031057;28;20120;-81
2021/08/12 07:50:57;;;;;;;0.77;0.77;;;28.40;61.00;;;;;;5013541;28;20393;-79
2021/08/12 07:53:23;;;;;;;0.47;0.47;;;28.50;60.60;;;;;;5032381;28;20036;-80
2021/08/12 07:55:49;;;;;;;0.60;0.60;;;28.60;60.40;;;;;;5014483;28;20025;-79
2021/08/12 07:58:15;;;;;;;0.40;0.40;;;28.60;61.10;;;;;;5031291;28;20040;-80
2021/08/12 08:00:41;;;;;;;1.08;0.88;;;28.60;60.00;;;;;;5031848;28;20527;-80
2021/08/12 08:03:06;;;;;;;0.50;0.50;;;28.50;59.50;;;;;;5032128;28;20409;-81
2021/08/12 08:05:32;;;;;;;0.80;0.80;;;28.60;59.40;;;;;;5031537;28;20477;-78
2021/08/12 08:07:58;;;;;;;0.63;0.60;;;28.70;59.20;;;;;;5031874;28;20091;-81
2021/08/12 08:10:26;;;;;;;0.50;0.50;;;28.60;58.80;;;;;;5031467;28;20049;-81
2021/08/12 08:12:52;;;;;;;0.65;0.65;;;28.70;59.00;;;;;;5031558;28;20028;-80
2021/08/12 08:15:21;;;;;;;2.70;1.77;;;28.70;59.00;;;;;;5031782;28;20123;-80
2021/08/12 08:17:47;;;;;;;1.05;0.73;;;28.90;59.20;;;;;;5031755;28;20030;-79
2021/08/12 08:20:14;;;;;;;1.17;0.98;;;28.90;59.20;;;;;;5031565;28;20030;-80
2021/08/12 08:22:40;;;;;;;1.30;1.15;;;28.90;59.70;;;;;;5031633;28;20075;-80
2021/08/12 08:25:07;;;;;;;1.30;1.20;;;28.90;59.40;;;;;;5031818;28;20029;-78
2021/08/12 08:27:33;;;;;;;0.80;0.80;;;29.10;59.50;;;;;;5031269;28;20025;-82
2021/08/12 08:29:59;;;;;;;0.90;0.80;;;29.20;59.70;;;;;;5013950;28;20029;-83
2021/08/12 08:32:25;;;;;;;0.50;0.50;;;29.20;59.60;;;;;;5031601;28;20037;-82
2021/08/12 08:34:52;;;;;;;0.47;0.47;;;29.20;59.30;;;;;;5032109;28;20105;-80
2021/08/12 08:37:18;;;;;;;1.25;1.08;;;29.20;59.20;;;;;;5031048;28;20021;-82
2021/08/12 08:39:45;;;;;;;2.55;1.58;;;29.30;59.30;;;;;;5013732;28;20034;-79
2021/08/12 08:42:13;;;;;;;1.23;0.93;;;29.50;58.80;;;;;;5031293;28;20018;-82
2021/08/12 08:44:42;;;;;;;0.45;0.45;;;29.60;58.40;;;;;;5031238;28;20025;-80
2021/08/12 08:47:09;;;;;;;0.63;0.60;;;29.70;58.50;;;;;;5013476;28;20025;-82
2021/08/12 08:49:39;;;;;;;0.50;0.50;;;29.70;57.80;;;;;;5031294;28;20036;-82
2021/08/12 08:52:07;;;;;;;;;;;29.80;57.40;;;;;;5031363;28;20114;-82
2021/08/12 08:54:34;;;;;;;0.32;0.32;;;29.80;57.50;;;;;;5013306;28;20258;-84
2021/08/12 08:57:01;;;;;;;0.30;0.30;;;30.00;57.70;;;;;;5031073;28;20052;-83
2021/08/12 08:59:27;;;;;;;0.93;0.70;;;30.20;59.40;;;;;;5031099;28;20038;-84
2021/08/12 09:01:55;;;;;;;2.15;1.02;;;30.20;58.50;;;;;;5031046;28;20117;-83
2021/08/12 09:04:21;;;;;;;1.67;1.52;;;30.50;57.40;;;;;;5031058;28;20432;-81
2021/08/12 09:06:47;;;;;;;0.75;0.73;;;30.70;57.40;;;;;;5030750;28;20469;-82
2021/08/12 09:09:13;;;;;;;0.60;0.60;;;30.90;56.40;;;;;;5013179;28;20123;-82
2021/08/12 09:11:38;;;;;;;0.40;0.40;;;31.20;56.50;;;;;;5030866;28;20032;-83
2021/08/12 09:14:40;;;;;;;0.38;0.38;;;31.10;56.90;;;;;;5030541;28;20524;-83
2021/08/12 09:17:25;;;;;;;0.70;0.68;;;30.90;57.60;;;;;;5030987;28;20120;-84
2021/08/12 09:20:00;;;;;;;0.43;0.43;;;31.00;56.50;;;;;;5031306;28;20046;-84
2021/08/12 09:22:45;;;;;;;0.63;0.57;;;31.20;56.00;;;;;;5030941;28;20159;-87
2021/08/12 09:25:11;;;;;;;0.70;0.60;;;31.40;56.30;;;;;;5013487;28;20026;-83
2021/08/12 09:27:37;;;;;;;1.23;0.90;;;31.40;55.10;;;;;;5030553;28;20018;-81
2021/08/12 09:30:15;;;;;;;0.45;0.45;;;31.50;55.70;;;;;;5030869;28;20032;-89
2021/08/12 09:32:45;;;;;;;0.40;0.40;;;31.70;55.00;;;;;;5030780;28;20029;-80
2021/08/12 09:35:11;;;;;;;0.55;0.55;;;32.00;55.90;;;;;;5013094;28;20516;-83
2021/08/12 09:37:37;;;;;;;0.88;0.63;;;32.20;55.10;;;;;;5013061;28;20533;-82
2021/08/12 09:40:04;;;;;;;0.57;0.57;;;32.20;55.50;;;;;;5012730;28;20164;-84
2021/08/12 09:42:52;;;;;;;1.13;0.60;;;32.30;55.30;;;;;;5032876;28;20057;-81
2021/08/12 09:45:26;;;;;;;0.47;0.47;;;32.40;54.00;;;;;;5016594;28;20402;-84
2021/08/12 09:47:53;;;;;;;0.60;0.60;;;32.40;54.70;;;;;;5033384;28;20029;-84
2021/08/12 09:50:34;;;;;;;0.60;0.35;;;32.60;54.20;;;;;;5016779;28;20039;-82
2021/08/12 09:53:01;;;;;;;0.93;0.50;;;32.80;53.90;;;;;;5034291;28;20079;-89
2021/08/12 09:55:27;;;;;;;0.65;0.65;;;32.70;53.90;;;;;;5016622;28;20108;-84
2021/08/12 09:58:05;;;;;;;0.95;0.60;;;32.70;53.20;;;;;;5032760;28;20185;-84
2021/08/12 10:01:14;;;;;;;0.52;0.47;;;32.80;53.10;;;;;;5012186;28;20030;-85
2021/08/12 10:03:44;;;;;;;0.50;0.50;;;32.90;53.40;;;;;;5031004;28;20497;-84
2021/08/12 10:09:54;;;;;;;0.30;0.30;;;33.00;54.10;;;;;;4971975;28;20061;-85
2021/08/12 10:12:33;;;;;;;1.40;0.90;;;33.20;52.60;;;;;;5014277;28;20034;-83
2021/08/12 10:15:10;;;;;;;0.97;0.50;;;33.30;52.50;;;;;;4996308;28;20117;-89
2021/08/12 10:17:43;;;;;;;1.98;0.63;;;33.40;52.10;;;;;;4993664;28;20049;-83
2021/08/12 10:20:30;;;;;;;0.95;0.75;;;33.40;53.90;;;;;;4994730;28;20394;-89
2021/08/12 10:22:58;;;;;;;0.30;0.30;;;33.60;52.70;;;;;;5005413;28;20410;-86
2021/08/12 10:26:04;;;;;;;0.30;0.30;;;33.70;52.80;;;;;;5014386;28;20030;-83
2021/08/12 10:28:36;;;;;;;0.90;0.85;;;34.00;52.40;;;;;;5013089;28;20026;-81
2021/08/12 10:31:03;;;;;;;1.15;0.60;;;34.10;51.80;;;;;;4994165;28;20027;-84
2021/08/12 10:33:29;;;;;;;0.77;0.73;;;34.00;50.40;;;;;;4994481;28;20038;-79
2021/08/12 10:35:59;;;;;;;0.68;0.68;;;34.10;51.00;;;;;;4993475;28;20199;-84
2021/08/12 10:38:25;;;;;;;;;;;34.50;51.00;;;;;;4993979;28;20062;-84
2021/08/12 10:40:52;;;;;;;1.20;0.55;;;34.60;51.10;;;;;;4994222;28;19941;-87
2021/08/12 10:43:25;;;;;;;0.20;0.20;;;34.80;50.80;;;;;;4993781;28;20383;-82
2021/08/12 10:45:59;;;;;;;0.30;0.30;;;34.30;50.00;;;;;;4993663;28;20026;-86
2021/08/12 10:48:26;;;;;;;1.75;0.70;;;34.50;49.70;;;;;;5001211;28;20112;-84
2021/08/12 10:51:16;;;;;;;0.55;0.55;;;34.30;49.90;;;;;;5001028;28;20030;-82
2021/08/12 10:54:15;;;;;;;0.25;0.25;;;34.20;49.60;;;;;;5001448;28;20076;-80
2021/08/12 10:56:42;;;;;;;0.30;0.30;;;34.30;48.80;;;;;;5001589;28;20019;-81
2021/08/12 10:59:08;;;;;;;0.35;0.30;;;34.30;46.60;;;;;;5001073;28;20034;-79
2021/08/12 11:01:36;;;;;;;0.30;0.30;;;34.50;47.40;;;;;;4992344;28;20030;-79
2021/08/12 11:04:03;;;;;;;0.30;0.30;;;34.40;46.90;;;;;;5003365;28;20033;-77
2021/08/12 11:06:41;;;;;;;0.60;0.52;;;34.30;46.50;;;;;;5012636;28;20025;-80
2021/08/12 11:09:08;;;;;;;0.20;0.20;;;34.30;47.50;;;;;;5013711;28;20021;-77
2021/08/12 11:11:37;;;;;;;0.68;0.63;;;34.50;47.20;;;;;;5028153;28;20139;-77
2021/08/12 11:14:07;;;;;;;0.35;0.35;;;34.60;47.90;;;;;;5031718;28;20071;-79
2021/08/12 11:16:45;;;;;;;0.30;0.30;;;34.90;47.50;;;;;;5013821;28;20436;-79
2021/08/12 11:19:27;;;;;;;2.40;0.95;;;35.10;47.10;;;;;;5022321;28;20297;-78
2021/08/12 11:21:54;;;;;;;0.88;0.75;;;35.40;47.50;;;;;;5012459;28;20029;-80
2021/08/12 11:24:22;;;;;;;0.60;0.60;;;35.30;47.40;;;;;;5022982;28;20044;-81
2021/08/12 11:27:02;;;;;;;0.30;0.30;;;35.00;46.80;;;;;;5032167;28;20033;-80
2021/08/12 11:29:28;;;;;;;0.10;0.10;;;34.70;46.70;;;;;;5031552;28;20029;-78
2021/08/12 11:32:08;;;;;;;0.68;0.68;;;34.70;47.40;;;;;;5032054;28;20025;-79
2021/08/12 11:34:34;;;;;;;1.20;0.85;;;34.80;46.80;;;;;;5032119;28;20024;-81
2021/08/12 11:37:13;;;;;;;0.30;0.25;;;35.00;47.50;;;;;;5031901;28;20037;-77
2021/08/12 11:40:05;;;;;;;5.15;1.15;;;35.10;46.90;;;;;;4994297;28;20393;-79
2021/08/12 11:42:37;;;;;;;0.45;0.20;;;35.30;46.50;;;;;;5011610;28;20033;-79
2021/08/12 11:45:09;;;;;;;0.85;0.75;;;35.20;47.80;;;;;;5011735;28;20413;-77
2021/08/12 11:47:37;;;;;;;0.38;0.38;;;35.20;46.60;;;;;;5011734;28;20022;-78
2021/08/12 11:50:06;;;;;;;0.28;0.28;;;35.60;47.20;;;;;;5011853;28;20022;-78
2021/08/12 11:52:34;;;;;;;0.30;0.30;;;35.40;46.70;;;;;;5019412;28;20028;-81
2021/08/12 11:55:11;;;;;;;1.33;0.60;;;35.60;46.50;;;;;;5051178;28;20266;-81
2021/08/12 11:57:54;;;;;;;0.10;0.10;;;35.70;46.30;;;;;;5051378;28;20442;-80
2021/08/12 12:00:27;;;;;;;0.60;0.50;;;35.90;46.50;;;;;;5050369;28;20037;-79
2021/08/12 12:03:03;;;;;;;0.80;0.43;;;35.80;46.60;;;;;;5050741;28;20032;-77
2021/08/12 12:05:34;;;;;;;0.20;0.20;;;35.90;45.80;;;;;;5032972;28;20037;-75
2021/08/12 12:08:11;;;;;;;1.63;0.85;;;36.30;46.20;;;;;;5039267;28;20025;-77
2021/08/12 12:10:43;;;;;;;0.30;0.30;;;36.30;46.10;;;;;;5051212;28;20053;-77
2021/08/12 12:13:10;;;;;;;0.90;0.45;;;36.40;46.00;;;;;;5050982;28;20025;-78
2021/08/12 12:15:40;;;;;;;0.28;0.28;;;36.70;46.10;;;;;;5051494;28;20117;-78
2021/08/12 12:18:06;;;;;;;2.83;1.30;;;36.40;46.10;;;;;;5036173;28;20108;-76
2021/08/12 12:20:35;;;;;;;1.27;0.98;;;36.60;45.80;;;;;;5013282;28;20241;-76
2021/08/12 12:23:10;;;;;;;0.40;0.40;;;36.80;45.80;;;;;;5015178;28;20064;-79
2021/08/12 12:25:38;;;;;;;0.30;0.30;;;36.80;45.70;;;;;;5028617;28;20588;-81
2021/08/12 12:28:05;;;;;;;0.35;0.35;;;36.90;45.20;;;;;;5030747;28;20385;-81
2021/08/12 12:30:32;;;;;;;0.25;0.25;;;36.90;45.90;;;;;;5030899;28;20030;-79
2021/08/12 12:33:02;;;;;;;1.40;0.65;;;36.60;45.20;;;;;;5029389;28;20045;-82
2021/08/12 12:35:31;;;;;;;0.65;0.57;;;37.00;46.60;;;;;;5025785;28;20026;-75
2021/08/12 12:37:58;;;;;;;0.43;0.43;;;37.20;45.80;;;;;;5030820;28;20026;-80
2021/08/12 12:40:28;;;;;;;1.65;0.52;;;37.00;45.20;;;;;;5029644;28;20112;-77
2021/08/12 12:42:54;;;;;;;1.10;0.60;;;37.10;44.60;;;;;;5009774;28;20470;-78
2021/08/12 12:45:21;;;;;;;0.68;0.50;;;36.70;44.60;;;;;;5037377;28;20609;-78
2021/08/12 12:47:47;;;;;;;1.00;0.80;;;36.40;44.50;;;;;;5040535;28;20020;-77
2021/08/12 12:50:17;;;;;;;2.75;0.52;;;36.80;44.40;;;;;;5039791;28;20068;-77
2021/08/12 12:53:01;;;;;;;0.45;0.35;;;36.80;45.40;;;;;;5038961;28;20461;-78
2021/08/12 12:55:35;;;;;;;0.40;0.40;;;37.00;44.80;;;;;;5035427;28;20030;-76
2021/08/12 12:58:25;;;;;;;0.50;0.50;;;37.30;44.90;;;;;;5012092;28;20509;-77
2021/08/12 13:01:01;;;;;;;0.55;0.55;;;37.00;44.70;;;;;;5010877;28;20021;-78